createdAt,value
2017-12-03T00:01:02.941Z,0.80
2017-12-03T00:03:30.364Z,0.80
2017-12-03T00:05:57.792Z,0.80
2017-12-03T00:08:26.018Z,0.80
2017-12-03T00:10:53.444Z,0.70
2017-12-03T00:13:21.653Z,0.80
2017-12-03T00:15:49.976Z,0.80
2017-12-03T00:18:17.432Z,0.70
2017-12-03T00:20:44.856Z,0.80
2017-12-03T00:23:12.349Z,0.80
2017-12-03T00:25:39.791Z,0.80
2017-12-03T00:28:07.224Z,0.80
2017-12-03T00:30:35.424Z,0.80
2017-12-03T00:33:02.924Z,0.80
2017-12-03T00:35:30.453Z,0.80
2017-12-03T00:37:57.903Z,0.80
2017-12-03T00:40:25.332Z,0.80
2017-12-03T00:42:52.767Z,0.80
2017-12-03T00:45:20.981Z,0.80
2017-12-03T00:47:48.452Z,0.80
2017-12-03T00:50:15.885Z,0.80
2017-12-03T00:52:43.372Z,0.80
2017-12-03T00:55:10.824Z,0.80
2017-12-03T00:57:38.276Z,0.80
2017-12-03T01:00:05.728Z,0.80
2017-12-03T01:02:33.156Z,0.80
2017-12-03T01:05:01.359Z,0.80
2017-12-03T01:07:28.804Z,0.80
2017-12-03T01:09:56.312Z,0.80
2017-12-03T01:12:23.716Z,0.80
2017-12-03T01:14:51.156Z,0.90
2017-12-03T01:17:19.349Z,0.90
2017-12-03T01:19:46.800Z,0.80
2017-12-03T01:22:15.198Z,0.90
2017-12-03T01:24:42.604Z,0.80
2017-12-03T01:27:10.116Z,0.90
2017-12-03T01:29:37.564Z,0.90
2017-12-03T01:32:04.999Z,0.90
2017-12-03T01:34:33.199Z,0.90
2017-12-03T01:37:00.636Z,0.90
2017-12-03T01:39:28.136Z,0.90
2017-12-03T01:41:55.581Z,0.90
2017-12-03T01:44:23.027Z,0.90
2017-12-03T01:46:50.497Z,0.90
2017-12-03T01:49:17.924Z,0.90
2017-12-03T01:51:45.369Z,0.90
2017-12-03T01:54:13.556Z,0.90
2017-12-03T01:56:40.992Z,0.90
2017-12-03T01:59:09.205Z,0.90
2017-12-03T02:01:36.668Z,0.90
2017-12-03T02:04:04.120Z,0.90
2017-12-03T02:06:31.568Z,0.90
2017-12-03T02:08:58.988Z,0.90
2017-12-03T02:11:26.425Z,0.90
2017-12-03T02:13:53.913Z,0.90
2017-12-03T02:16:21.376Z,0.90
2017-12-03T02:18:48.804Z,1.00
2017-12-03T02:21:16.292Z,1.00
2017-12-03T02:23:43.717Z,1.00
2017-12-03T02:26:11.206Z,1.00
2017-12-03T02:28:38.649Z,1.00
2017-12-03T02:31:06.085Z,1.00
2017-12-03T02:33:34.285Z,1.00
2017-12-03T02:36:01.749Z,1.00
2017-12-03T02:38:29.172Z,1.00
2017-12-03T02:40:56.673Z,1.00
2017-12-03T02:43:24.216Z,1.00
2017-12-03T02:45:51.665Z,1.00
2017-12-03T02:48:19.141Z,1.10
2017-12-03T02:50:46.582Z,1.10
2017-12-03T02:53:14.013Z,1.00
2017-12-03T02:55:41.444Z,1.10
2017-12-03T02:58:08.890Z,1.10
2017-12-03T03:00:36.317Z,1.10
2017-12-03T03:03:03.752Z,1.10
2017-12-03T03:05:31.196Z,1.10
2017-12-03T03:07:59.398Z,1.10
2017-12-03T03:10:26.828Z,1.10
2017-12-03T03:12:54.324Z,1.10
2017-12-03T03:15:21.753Z,1.10
2017-12-03T03:17:49.176Z,1.10
2017-12-03T03:20:16.694Z,1.10
2017-12-03T03:22:44.124Z,1.10
2017-12-03T03:25:11.562Z,1.10
2017-12-03T03:27:39.784Z,1.10
2017-12-03T03:30:07.219Z,1.10
2017-12-03T03:32:34.642Z,1.20
2017-12-03T03:35:02.081Z,1.20
2017-12-03T03:37:29.518Z,1.20
2017-12-03T03:39:56.965Z,1.20
2017-12-03T03:42:24.396Z,1.20
2017-12-03T03:44:51.834Z,1.20
2017-12-03T03:47:20.032Z,1.20
2017-12-03T03:49:47.536Z,1.20
2017-12-03T03:52:15.064Z,1.20
2017-12-03T03:54:42.532Z,1.20
2017-12-03T03:57:09.976Z,1.20
2017-12-03T03:59:37.408Z,1.20
2017-12-03T04:02:04.892Z,1.20
2017-12-03T04:04:32.359Z,1.20
2017-12-03T04:06:59.788Z,1.20
2017-12-03T04:09:27.217Z,1.20
2017-12-03T04:11:55.420Z,1.20
2017-12-03T04:14:22.948Z,1.20
2017-12-03T04:16:51.144Z,1.20
2017-12-03T04:19:18.580Z,1.20
2017-12-03T04:21:46.016Z,1.20
2017-12-03T04:24:13.548Z,1.20
2017-12-03T04:26:40.988Z,1.20
2017-12-03T04:29:08.471Z,1.30
2017-12-03T04:31:35.888Z,1.20
2017-12-03T04:34:03.376Z,1.20
2017-12-03T04:36:30.832Z,1.30
2017-12-03T04:38:58.257Z,1.30
2017-12-03T04:41:25.692Z,1.30
2017-12-03T04:43:53.205Z,1.30
2017-12-03T04:46:20.632Z,1.30
2017-12-03T04:48:48.072Z,1.30
2017-12-03T04:51:16.294Z,1.30
2017-12-03T04:53:43.753Z,1.30
2017-12-03T04:56:11.205Z,1.30
2017-12-03T04:58:38.636Z,1.30
2017-12-03T05:01:06.121Z,1.30
2017-12-03T05:03:33.584Z,1.30
2017-12-03T05:06:01.038Z,1.40
2017-12-03T05:08:28.468Z,1.40
2017-12-03T05:10:55.908Z,1.40
2017-12-03T05:13:24.128Z,1.40
2017-12-03T05:15:51.556Z,1.30
2017-12-03T05:18:18.997Z,1.40
2017-12-03T05:20:47.217Z,1.40
2017-12-03T05:23:14.645Z,1.40
2017-12-03T05:25:42.085Z,1.40
2017-12-03T05:28:10.311Z,1.40
2017-12-03T05:30:37.760Z,1.40
2017-12-03T05:33:05.194Z,1.40
2017-12-03T05:35:32.624Z,1.40
2017-12-03T05:38:00.849Z,1.40
2017-12-03T05:40:28.296Z,1.40
2017-12-03T05:42:55.761Z,1.40
2017-12-03T05:45:23.188Z,1.50
2017-12-03T05:47:50.672Z,1.40
2017-12-03T05:50:18.987Z,1.50
2017-12-03T05:52:46.513Z,1.40
2017-12-03T05:55:13.964Z,1.50
2017-12-03T05:57:41.400Z,1.50
2017-12-03T06:00:08.879Z,1.50
2017-12-03T06:02:36.330Z,1.50
2017-12-03T06:05:03.761Z,1.50
2017-12-03T06:07:31.962Z,1.50
2017-12-03T06:09:59.404Z,1.50
2017-12-03T06:12:26.828Z,1.50
2017-12-03T06:14:54.260Z,1.60
2017-12-03T06:17:21.714Z,1.60
2017-12-03T06:19:49.146Z,1.60
2017-12-03T06:22:16.576Z,1.60
2017-12-03T06:24:44.014Z,1.60
2017-12-03T06:27:11.444Z,1.60
2017-12-03T06:29:38.980Z,1.60
2017-12-03T06:32:06.436Z,1.60
2017-12-03T06:34:33.896Z,1.60
2017-12-03T06:37:01.353Z,1.60
2017-12-03T06:39:28.816Z,1.70
2017-12-03T06:41:56.248Z,1.70
2017-12-03T06:44:23.738Z,1.70
2017-12-03T06:46:51.280Z,1.70
2017-12-03T06:49:18.740Z,1.70
2017-12-03T06:51:46.173Z,1.70
2017-12-03T06:54:13.652Z,1.70
2017-12-03T06:56:41.108Z,1.70
2017-12-03T06:59:08.544Z,1.70
2017-12-03T07:01:35.984Z,1.70
2017-12-03T07:04:04.196Z,1.70
2017-12-03T07:06:31.632Z,1.70
2017-12-03T07:08:59.069Z,1.70
2017-12-03T07:11:26.506Z,1.70
2017-12-03T07:13:53.937Z,1.80
2017-12-03T07:16:21.388Z,1.80
2017-12-03T07:18:48.816Z,1.80
2017-12-03T07:21:16.245Z,1.80
2017-12-03T07:23:44.462Z,1.80
2017-12-03T07:26:11.886Z,1.80
2017-12-03T07:28:40.097Z,1.80
2017-12-03T07:31:07.560Z,1.80
2017-12-03T07:33:34.993Z,1.80
2017-12-03T07:36:02.434Z,1.80
2017-12-03T07:38:30.639Z,1.80
2017-12-03T07:40:58.072Z,1.80
2017-12-03T07:43:25.500Z,1.90
2017-12-03T07:45:53.029Z,1.90
2017-12-03T07:48:20.484Z,1.90
2017-12-03T07:50:47.933Z,1.90
2017-12-03T07:53:15.395Z,1.90
2017-12-03T07:55:42.853Z,1.90
2017-12-03T07:58:10.311Z,1.90
2017-12-03T08:00:37.772Z,1.90
2017-12-03T08:03:05.214Z,1.90
2017-12-03T08:05:32.649Z,1.90
2017-12-03T08:08:00.143Z,2.00
2017-12-03T08:10:27.593Z,2.00
2017-12-03T08:12:55.053Z,2.00
2017-12-03T08:15:22.498Z,2.00
2017-12-03T08:17:49.928Z,2.00
2017-12-03T08:20:17.360Z,2.00
2017-12-03T08:22:44.801Z,2.00
2017-12-03T08:25:13.736Z,2.10
2017-12-03T08:27:41.225Z,2.00
2017-12-03T08:30:08.672Z,2.10
2017-12-03T08:32:36.254Z,2.10
2017-12-03T08:35:04.406Z,2.10
2017-12-03T08:37:31.854Z,2.10
2017-12-03T08:39:59.280Z,2.10
2017-12-03T08:42:27.516Z,2.20
2017-12-03T08:44:54.966Z,2.20
2017-12-03T08:47:22.424Z,2.20
2017-12-03T08:49:49.852Z,2.20
2017-12-03T08:52:17.289Z,2.20
2017-12-03T08:54:45.489Z,2.20
2017-12-03T08:57:12.921Z,2.20
2017-12-03T08:59:41.145Z,2.30
2017-12-03T09:02:08.580Z,2.30
2017-12-03T09:04:36.028Z,2.30
2017-12-03T09:07:03.513Z,2.30
2017-12-03T09:09:30.977Z,2.30
2017-12-03T09:11:58.400Z,2.30
2017-12-03T09:14:25.847Z,2.40
2017-12-03T09:16:54.061Z,2.40
2017-12-03T09:19:21.522Z,2.40
2017-12-03T09:21:48.957Z,2.40
2017-12-03T09:24:16.440Z,2.40
2017-12-03T09:26:43.869Z,2.40
2017-12-03T09:29:12.060Z,2.40
2017-12-03T09:31:39.470Z,2.50
2017-12-03T09:34:07.668Z,2.50
2017-12-03T09:36:35.156Z,2.50
2017-12-03T09:39:03.352Z,2.50
2017-12-03T09:41:30.845Z,2.50
2017-12-03T09:43:58.293Z,2.50
2017-12-03T09:46:25.752Z,2.60
2017-12-03T09:48:53.300Z,2.60
2017-12-03T09:51:20.721Z,2.60
2017-12-03T09:53:48.917Z,2.60
2017-12-03T09:56:16.346Z,2.60
2017-12-03T09:58:44.564Z,2.60
2017-12-03T10:01:12.032Z,2.60
2017-12-03T10:03:39.460Z,2.70
2017-12-03T10:06:06.948Z,2.70
2017-12-03T10:08:34.376Z,2.70
2017-12-03T10:11:01.861Z,2.70
2017-12-03T10:13:29.308Z,2.70
2017-12-03T10:15:56.795Z,2.80
2017-12-03T10:18:24.230Z,2.80
2017-12-03T10:20:51.660Z,2.80
2017-12-03T10:23:19.153Z,2.80
2017-12-03T10:25:46.613Z,2.80
2017-12-03T10:28:14.169Z,2.90
2017-12-03T10:30:41.610Z,2.80
2017-12-03T10:33:09.033Z,2.80
2017-12-03T10:35:37.245Z,2.90
2017-12-03T10:38:18.424Z,2.90
2017-12-03T10:40:45.880Z,2.90
2017-12-03T10:43:13.329Z,2.90
2017-12-03T10:45:40.804Z,2.90
2017-12-03T10:48:08.253Z,2.90
2017-12-03T10:50:35.684Z,2.90
2017-12-03T10:53:03.112Z,3.00
2017-12-03T10:55:31.331Z,3.00
2017-12-03T10:57:58.802Z,3.00
2017-12-03T11:00:26.259Z,3.00
2017-12-03T11:02:53.704Z,3.10
2017-12-03T11:05:21.135Z,3.10
2017-12-03T11:07:49.347Z,3.20
2017-12-03T11:10:16.826Z,3.20
2017-12-03T11:12:44.264Z,3.20
2017-12-03T11:15:11.808Z,3.30
2017-12-03T11:17:39.280Z,3.30
2017-12-03T11:20:06.720Z,3.30
2017-12-03T11:22:34.141Z,3.30
2017-12-03T11:25:02.352Z,3.40
2017-12-03T11:27:29.829Z,3.40
2017-12-03T11:29:57.279Z,3.40
2017-12-03T11:32:24.724Z,3.40
2017-12-03T11:34:52.158Z,3.50
2017-12-03T11:37:20.481Z,3.50
2017-12-03T11:39:47.920Z,3.50
2017-12-03T11:42:15.392Z,3.50
2017-12-03T11:44:42.817Z,3.50
2017-12-03T11:47:10.299Z,3.60
2017-12-03T11:49:37.744Z,3.50
2017-12-03T11:52:05.248Z,3.60
2017-12-03T11:54:32.685Z,3.60
2017-12-03T11:57:00.115Z,3.60
2017-12-03T11:59:27.540Z,3.70
2017-12-03T12:01:55.762Z,3.70
2017-12-03T12:04:23.188Z,3.70
2017-12-03T12:06:50.676Z,3.70
2017-12-03T12:09:18.133Z,3.70
2017-12-03T12:11:45.574Z,3.80
2017-12-03T12:14:13.003Z,3.90
2017-12-03T12:16:41.412Z,3.90
2017-12-03T12:19:08.816Z,3.90
2017-12-03T12:21:36.261Z,4.00
2017-12-03T12:24:03.709Z,4.00
2017-12-03T12:26:31.146Z,4.10
2017-12-03T12:28:58.572Z,4.10
2017-12-03T12:31:26.021Z,4.10
2017-12-03T12:33:54.224Z,4.10
2017-12-03T12:36:21.656Z,4.10
2017-12-03T12:38:50.006Z,4.20
2017-12-03T12:41:17.421Z,4.20
2017-12-03T12:43:44.856Z,4.20
2017-12-03T12:46:12.332Z,4.20
2017-12-03T12:48:39.741Z,4.30
2017-12-03T12:51:07.939Z,4.40
2017-12-03T12:53:35.377Z,4.40
2017-12-03T12:56:03.580Z,4.40
2017-12-03T12:58:31.052Z,4.40
2017-12-03T13:00:58.516Z,4.50
2017-12-03T13:03:25.952Z,4.50
2017-12-03T13:05:53.817Z,4.50
2017-12-03T13:08:21.313Z,4.50
2017-12-03T13:10:48.852Z,4.60
2017-12-03T13:13:16.304Z,4.50
2017-12-03T13:15:43.732Z,4.60
2017-12-03T13:18:11.934Z,4.60
2017-12-03T13:20:39.396Z,4.60
2017-12-03T13:23:06.877Z,4.60
2017-12-03T13:25:34.309Z,4.60
2017-12-03T13:28:01.774Z,4.70
2017-12-03T13:30:29.219Z,4.70
2017-12-03T13:32:56.689Z,4.70
2017-12-03T13:35:24.121Z,4.70
2017-12-03T13:37:51.581Z,4.70
2017-12-03T13:40:19.012Z,4.70
2017-12-03T13:42:47.212Z,4.80
2017-12-03T13:45:14.652Z,4.80
2017-12-03T13:47:42.868Z,4.80
2017-12-03T13:50:10.301Z,4.70
2017-12-03T13:52:37.740Z,4.80
2017-12-03T13:55:06.045Z,4.80
2017-12-03T13:57:33.512Z,4.80
2017-12-03T14:00:00.959Z,4.80
2017-12-03T14:02:28.386Z,4.80
2017-12-03T14:04:56.589Z,4.80
2017-12-03T14:07:24.037Z,4.80
2017-12-03T14:09:51.465Z,4.80
2017-12-03T14:12:19.665Z,4.80
2017-12-03T14:14:47.173Z,4.80
2017-12-03T14:17:14.619Z,4.80
2017-12-03T14:19:42.061Z,4.80
2017-12-03T14:22:09.513Z,4.80
2017-12-03T14:24:36.953Z,4.80
2017-12-03T14:27:04.376Z,4.80
2017-12-03T14:29:32.585Z,4.80
2017-12-03T14:32:00.067Z,4.80
2017-12-03T14:34:27.520Z,4.80
2017-12-03T14:36:54.981Z,4.80
2017-12-03T14:39:22.434Z,4.80
2017-12-03T14:41:49.891Z,4.80
2017-12-03T14:44:17.333Z,4.90
2017-12-03T14:46:44.776Z,4.80
2017-12-03T14:49:12.977Z,4.90
2017-12-03T14:51:40.441Z,4.90
2017-12-03T14:54:07.882Z,4.90
2017-12-03T14:56:35.353Z,4.90
2017-12-03T14:59:02.796Z,4.90
2017-12-03T15:01:30.224Z,4.90
2017-12-03T15:03:58.436Z,4.90
2017-12-03T15:06:25.897Z,4.90
2017-12-03T15:08:53.350Z,4.90
2017-12-03T15:11:20.786Z,5.00
2017-12-03T15:13:48.216Z,5.00
2017-12-03T15:16:16.413Z,5.00
2017-12-03T15:18:43.900Z,5.00
2017-12-03T15:21:11.465Z,5.00
2017-12-03T15:23:38.917Z,5.10
2017-12-03T15:26:06.365Z,5.00
2017-12-03T15:28:33.832Z,5.10
2017-12-03T15:31:01.265Z,5.10
2017-12-03T15:33:28.748Z,5.10
2017-12-03T15:35:56.305Z,5.10
2017-12-03T15:38:23.761Z,5.10
2017-12-03T15:40:51.189Z,5.10
2017-12-03T15:43:18.685Z,5.10
2017-12-03T15:45:46.119Z,5.10
2017-12-03T15:48:13.597Z,5.10
2017-12-03T15:50:41.150Z,5.20
2017-12-03T15:53:08.583Z,5.10
2017-12-03T15:55:36.085Z,5.10
2017-12-03T15:58:03.497Z,5.10
2017-12-03T16:00:30.932Z,5.20
2017-12-03T16:02:59.125Z,5.10
2017-12-03T16:05:26.745Z,5.20
2017-12-03T16:07:54.269Z,5.10
2017-12-03T16:10:21.736Z,5.20
2017-12-03T16:12:49.288Z,5.10
2017-12-03T16:15:16.734Z,5.10
2017-12-03T16:17:44.168Z,5.10
2017-12-03T16:20:11.657Z,5.10
2017-12-03T16:22:39.085Z,5.10
2017-12-03T16:25:06.579Z,5.10
2017-12-03T16:27:34.028Z,5.10
2017-12-03T16:30:01.485Z,5.10
2017-12-03T16:32:28.940Z,5.10
2017-12-03T16:34:56.385Z,5.10
2017-12-03T16:37:23.821Z,5.10
2017-12-03T16:39:52.028Z,5.00
2017-12-03T16:42:19.485Z,5.00
2017-12-03T16:44:46.912Z,5.00
2017-12-03T16:47:14.400Z,5.00
2017-12-03T16:49:41.863Z,4.90
2017-12-03T16:52:09.317Z,4.90
2017-12-03T16:54:36.781Z,4.90
2017-12-03T16:57:04.333Z,4.90
2017-12-03T16:59:31.765Z,4.90
2017-12-03T17:01:59.197Z,4.90
2017-12-03T17:04:27.406Z,5.00
2017-12-03T17:06:54.836Z,4.90
2017-12-03T17:09:23.041Z,4.90
2017-12-03T17:11:50.480Z,4.90
2017-12-03T17:14:17.965Z,4.90
2017-12-03T17:16:45.393Z,4.90
2017-12-03T17:19:12.881Z,4.90
2017-12-03T17:21:40.327Z,4.90
2017-12-03T17:24:07.762Z,4.90
2017-12-03T17:26:35.198Z,4.90
2017-12-03T17:29:03.424Z,4.90
2017-12-03T17:31:30.887Z,4.90
2017-12-03T17:33:58.333Z,4.90
2017-12-03T17:36:25.769Z,4.90
2017-12-03T17:38:53.258Z,4.90
2017-12-03T17:41:20.697Z,4.90
2017-12-03T17:43:48.170Z,4.90
2017-12-03T17:46:15.597Z,4.80
2017-12-03T17:48:43.053Z,4.80
2017-12-03T17:51:10.484Z,4.80
2017-12-03T17:53:38.706Z,4.70
2017-12-03T17:56:06.144Z,4.70
2017-12-03T17:58:33.572Z,4.80
2017-12-03T18:01:01.781Z,4.70
2017-12-03T18:03:29.260Z,4.70
2017-12-03T18:05:56.695Z,4.70
2017-12-03T18:08:24.126Z,4.70
2017-12-03T18:10:52.354Z,4.70
2017-12-03T18:13:19.805Z,4.70
2017-12-03T18:15:47.266Z,4.70
2017-12-03T18:18:14.708Z,4.70
2017-12-03T18:20:42.145Z,4.70
2017-12-03T18:23:09.572Z,4.70
2017-12-03T18:25:37.793Z,4.70
2017-12-03T18:28:05.212Z,4.60
2017-12-03T18:30:33.412Z,4.70
2017-12-03T18:33:00.860Z,4.60
2017-12-03T18:35:28.349Z,4.60
2017-12-03T18:37:55.780Z,4.70
2017-12-03T18:40:23.229Z,4.70
2017-12-03T18:42:51.425Z,4.70
2017-12-03T18:45:18.853Z,4.60
2017-12-03T18:47:47.069Z,4.70
2017-12-03T18:50:14.506Z,4.70
2017-12-03T18:52:41.929Z,4.70
2017-12-03T18:55:10.132Z,4.70
2017-12-03T18:57:37.584Z,4.70
2017-12-03T19:00:05.100Z,4.70
2017-12-03T19:02:32.591Z,4.70
2017-12-03T19:05:00.008Z,4.70
2017-12-03T19:07:27.461Z,4.60
2017-12-03T19:09:54.905Z,4.70
2017-12-03T19:12:22.453Z,4.70
2017-12-03T19:14:49.877Z,4.70
2017-12-03T19:17:18.091Z,4.80
2017-12-03T19:19:45.585Z,4.80
2017-12-03T19:22:13.013Z,4.80
2017-12-03T19:24:40.568Z,4.80
2017-12-03T19:27:08.017Z,4.80
2017-12-03T19:29:35.473Z,4.80
2017-12-03T19:32:02.897Z,4.90
2017-12-03T19:34:31.102Z,4.90
2017-12-03T19:36:58.588Z,4.90
2017-12-03T19:39:26.031Z,4.80
2017-12-03T19:41:53.457Z,4.80
2017-12-03T19:44:20.941Z,4.80
2017-12-03T19:46:48.392Z,4.80
2017-12-03T19:49:15.820Z,4.80
2017-12-03T19:51:44.030Z,4.80
2017-12-03T19:54:11.475Z,4.80
2017-12-03T19:56:38.936Z,4.80
2017-12-03T19:59:06.347Z,4.80
2017-12-03T20:01:34.572Z,4.80
2017-12-03T20:04:02.029Z,4.80
2017-12-03T20:06:29.489Z,4.80
2017-12-03T20:08:56.981Z,4.80
2017-12-03T20:11:24.441Z,4.70
2017-12-03T20:13:51.857Z,4.70
2017-12-03T20:16:19.307Z,4.70
2017-12-03T20:18:46.728Z,4.60
2017-12-03T20:21:14.924Z,4.60
2017-12-03T20:23:42.365Z,4.60
2017-12-03T20:26:10.566Z,4.60
2017-12-03T20:28:37.992Z,4.60
2017-12-03T20:31:06.201Z,4.60
2017-12-03T20:33:33.633Z,4.60
2017-12-03T20:36:01.061Z,4.60
2017-12-03T20:38:28.497Z,4.60
2017-12-03T20:40:55.929Z,4.60
2017-12-03T20:43:23.353Z,4.70
2017-12-03T20:45:51.569Z,4.70
2017-12-03T20:48:19.027Z,4.70
2017-12-03T20:50:46.458Z,4.70
2017-12-03T20:53:13.905Z,4.80
2017-12-03T20:55:41.332Z,4.80
2017-12-03T20:58:08.757Z,4.90
2017-12-03T21:00:36.310Z,4.90
2017-12-03T21:03:03.737Z,5.00
2017-12-03T21:05:31.166Z,5.00
2017-12-03T21:07:58.609Z,5.20
2017-12-03T21:10:26.041Z,5.30
2017-12-03T21:12:53.493Z,5.40
2017-12-03T21:15:20.941Z,5.40
2017-12-03T21:17:48.368Z,5.50
2017-12-03T21:20:16.589Z,5.50
2017-12-03T21:22:44.149Z,5.50
2017-12-03T21:25:11.580Z,5.50
2017-12-03T21:27:39.021Z,5.50
2017-12-03T21:30:07.333Z,5.50
2017-12-03T21:32:34.760Z,5.50
2017-12-03T21:35:02.188Z,5.50
2017-12-03T21:37:30.400Z,5.50
2017-12-03T21:39:57.973Z,5.50
2017-12-03T21:42:25.377Z,5.50
2017-12-03T21:44:53.584Z,5.50
2017-12-03T21:47:21.064Z,5.50
2017-12-03T21:49:48.497Z,5.50
2017-12-03T21:52:16.936Z,5.50
2017-12-03T21:54:44.374Z,5.50
2017-12-03T21:57:11.804Z,5.50
2017-12-03T21:59:39.244Z,5.50
2017-12-03T22:02:06.737Z,5.50
2017-12-03T22:04:34.173Z,5.50
2017-12-03T22:07:01.609Z,5.50
2017-12-03T22:09:29.811Z,5.50
2017-12-03T22:11:57.241Z,5.50
2017-12-03T22:14:25.553Z,5.50
2017-12-03T22:16:53.012Z,5.50
2017-12-03T22:19:21.208Z,5.40
2017-12-03T22:21:49.432Z,5.40
2017-12-03T22:24:16.925Z,5.40
2017-12-03T22:26:44.450Z,5.40
2017-12-03T22:29:11.890Z,5.40
2017-12-03T22:31:39.356Z,5.40
2017-12-03T22:34:06.784Z,5.40
2017-12-03T22:36:34.285Z,5.40
2017-12-03T22:39:01.720Z,5.40
2017-12-03T22:41:29.144Z,5.40
2017-12-03T22:43:57.473Z,5.40
2017-12-03T22:46:24.896Z,5.40
2017-12-03T22:48:52.377Z,5.40
2017-12-03T22:51:20.582Z,5.40
2017-12-03T22:53:48.064Z,5.40
2017-12-03T22:56:15.493Z,5.40
2017-12-03T22:58:42.973Z,5.40
2017-12-03T23:01:10.443Z,5.40
2017-12-03T23:03:37.868Z,5.50
2017-12-03T23:06:05.307Z,5.50
2017-12-03T23:08:33.531Z,5.50
2017-12-03T23:11:00.984Z,5.50
2017-12-03T23:13:28.437Z,5.50
2017-12-03T23:15:55.865Z,5.60
2017-12-03T23:18:23.325Z,5.60
2017-12-03T23:20:50.808Z,5.70
2017-12-03T23:23:18.232Z,5.70
2017-12-03T23:25:45.722Z,5.70
2017-12-03T23:28:13.152Z,5.70
2017-12-03T23:30:40.580Z,5.70
2017-12-03T23:33:08.087Z,5.70
2017-12-03T23:35:35.504Z,5.70
2017-12-03T23:38:03.718Z,5.80
2017-12-03T23:40:31.122Z,5.80
2017-12-03T23:42:58.565Z,5.90
2017-12-03T23:45:26.090Z,5.90
2017-12-03T23:47:53.552Z,5.90
2017-12-03T23:50:21.023Z,5.90
2017-12-03T23:52:48.415Z,5.90
2017-12-03T23:55:16.690Z,5.80
2017-12-03T23:57:44.208Z,5.80
